Time;durP1;ratioP1;P1;durP2;ratioP2;P2;SDS_P1;SDS_P2;PMS_P1;PMS_P2;Temp;Humidity;BMP_temperature;BMP_pressure;BME280_temperature;BME280_humidity;BME280_pressure;Samples;Min_cycle;Max_cycle;Signal;HPM_P1;HPM_P2
2022/07/03 00:00:40;;;;;;;4.18;2.65;;;;;;;18.24;100.00;96895.31;5132426;27;20189;-52
2022/07/03 00:03:08;;;;;;;2.60;2.40;;;;;;;18.21;100.00;96892.16;5132662;27;20223;-52
2022/07/03 00:05:35;;;;;;;2.65;2.55;;;;;;;18.22;100.00;96891.13;5132962;27;20268;-53
2022/07/03 00:08:05;;;;;;;2.92;2.72;;;;;;;18.20;100.00;96895.84;5133736;28;20707;-54
2022/07/03 00:10:34;;;;;;;2.47;2.38;;;;;;;18.17;100.00;96896.22;5135641;27;20204;-52
2022/07/03 00:13:04;;;;;;;2.63;2.50;;;;;;;18.15;100.00;96898.22;5135893;28;20651;-53
2022/07/03 00:15:33;;;;;;;3.70;2.60;;;;;;;18.13;100.00;96900.28;5151916;27;20180;-52
2022/07/03 00:18:00;;;;;;;3.03;2.83;;;;;;;18.06;100.00;96900.19;5156634;28;20189;-52
2022/07/03 00:20:29;;;;;;;3.20;3.00;;;;;;;18.03;100.00;96899.72;5158425;27;20188;-52
2022/07/03 00:22:59;;;;;;;3.17;2.70;;;;;;;18.05;100.00;96908.38;5159189;27;20216;-52
2022/07/03 00:25:25;;;;;;;3.58;3.30;;;;;;;18.04;100.00;96904.88;5159221;27;20192;-52
2022/07/03 00:27:52;;;;;;;3.45;3.10;;;;;;;18.01;100.00;96907.06;5159031;27;20200;-52
2022/07/03 00:30:22;;;;;;;3.97;3.38;;;;;;;17.98;100.00;96904.78;5161164;27;20176;-52
2022/07/03 00:32:50;;;;;;;3.53;3.22;;;;;;;17.94;100.00;96914.19;5162376;27;20202;-52
2022/07/03 00:35:21;;;;;;;3.55;3.25;;;;;;;17.90;100.00;96908.34;5163281;27;20181;-53
2022/07/03 00:37:50;;;;;;;3.75;3.45;;;;;;;17.84;100.00;96903.75;5160519;27;20181;-52
2022/07/03 00:40:18;;;;;;;3.67;3.47;;;;;;;17.86;100.00;96913.25;5136778;27;20239;-52
2022/07/03 00:42:46;;;;;;;3.95;3.65;;;;;;;17.85;100.00;96914.25;5135683;27;20220;-51
2022/07/03 00:45:15;;;;;;;3.50;3.30;;;;;;;17.84;100.00;96912.59;5134683;27;20235;-52
2022/07/03 00:47:44;;;;;;;3.20;3.00;;;;;;;17.77;100.00;96917.00;5135546;27;20196;-52
2022/07/03 00:50:11;;;;;;;3.30;3.10;;;;;;;17.74;100.00;96913.88;5135567;27;20200;-53
2022/07/03 00:52:39;;;;;;;3.17;3.00;;;;;;;17.68;100.00;96918.09;5135685;27;20211;-51
2022/07/03 00:55:09;;;;;;;3.53;3.22;;;;;;;17.68;100.00;96920.75;5135481;27;20205;-53
2022/07/03 00:57:36;;;;;;;3.85;3.40;;;;;;;17.68;100.00;96912.72;5138056;27;20195;-52
2022/07/03 01:00:03;;;;;;;4.15;3.50;;;;;;;17.64;100.00;96906.06;5149168;27;20231;-52
2022/07/03 01:02:41;;;;;;;3.63;3.33;;;;;;;17.59;100.00;96907.63;5140097;27;20217;-53
2022/07/03 01:05:14;;;;;;;3.65;3.33;;;;;;;17.61;100.00;96905.59;5137255;27;20184;-52
2022/07/03 01:07:49;;;;;;;3.67;3.47;;;;;;;17.56;100.00;96911.50;5135078;27;20628;-54
2022/07/03 01:10:23;;;;;;;4.25;3.78;;;;;;;17.57;100.00;96915.84;5135433;27;20211;-52
2022/07/03 01:13:01;;;;;;;4.18;3.95;;;;;;;17.58;100.00;96906.81;5135722;27;20199;-53
2022/07/03 01:15:38;;;;;;;3.58;3.33;;;;;;;17.62;100.00;96907.28;5135065;27;20191;-52
2022/07/03 01:18:15;;;;;;;4.85;3.67;;;;;;;17.59;100.00;96903.13;5135700;27;20608;-53
2022/07/03 01:20:45;;;;;;;3.60;3.40;;;;;;;17.55;100.00;96912.47;5135501;27;20196;-53
2022/07/03 01:23:21;;;;;;;6.60;6.03;;;;;;;17.56;100.00;96902.63;5135295;27;20269;-53
2022/07/03 01:25:52;;;;;;;5.00;4.47;;;;;;;17.51;100.00;96903.16;5135688;27;20211;-53
2022/07/03 01:28:23;;;;;;;4.57;4.18;;;;;;;17.45;100.00;96911.91;5134782;27;20676;-53
2022/07/03 01:30:51;;;;;;;3.63;3.33;;;;;;;17.51;100.00;96913.84;5134574;27;21735;-52
2022/07/03 01:33:20;;;;;;;3.47;3.28;;;;;;;17.49;100.00;96915.06;5134942;27;20205;-53
2022/07/03 01:35:58;;;;;;;4.75;3.60;;;;;;;17.42;100.00;96923.78;5135508;27;20216;-53
2022/07/03 01:38:28;;;;;;;3.90;3.60;;;;;;;17.46;100.00;96918.94;5133595;27;20192;-52
2022/07/03 01:40:57;;;;;;;3.95;3.65;;;;;;;17.42;100.00;96921.13;5134557;27;20757;-52
2022/07/03 01:43:28;;;;;;;4.30;3.90;;;;;;;17.41;100.00;96914.09;5134784;27;20216;-52
2022/07/03 01:45:57;;;;;;;3.92;3.53;;;;;;;17.34;100.00;96926.53;5134543;27;20537;-52
2022/07/03 01:48:25;;;;;;;3.60;3.40;;;;;;;17.36;100.00;96923.66;5134070;27;20219;-52
2022/07/03 01:50:53;;;;;;;4.00;3.63;;;;;;;17.34;100.00;96925.69;5135107;27;20200;-52
2022/07/03 01:53:21;;;;;;;4.22;3.88;;;;;;;17.24;100.00;96920.59;5135144;27;20287;-50
2022/07/03 01:55:50;;;;;;;3.67;3.47;;;;;;;17.20;100.00;96919.28;5134832;27;20633;-53
2022/07/03 01:58:18;;;;;;;3.72;3.35;;;;;;;17.24;100.00;96922.41;5134784;27;20717;-53
2022/07/03 02:00:51;;;;;;;3.60;3.40;;;;;;;17.24;100.00;96914.41;5134509;27;20322;-53
2022/07/03 02:03:26;;;;;;;3.83;3.47;;;;;;;17.22;100.00;96916.41;5134549;27;20208;-52
2022/07/03 02:06:04;;;;;;;4.07;3.75;;;;;;;17.17;100.00;96916.13;5134789;27;20199;-53
2022/07/03 02:08:41;;;;;;;4.28;3.50;;;;;;;17.10;100.00;96926.69;5134144;27;20210;-51
2022/07/03 02:11:15;;;;;;;5.13;3.45;;;;;;;17.16;100.00;96922.47;5134091;27;20219;-53
2022/07/03 02:13:59;;;;;;;4.90;3.30;;;;;;;17.09;100.00;96918.84;5134787;27;20200;-52
2022/07/03 02:16:26;;;;;;;3.38;3.05;;;;;;;17.03;100.00;96924.91;5133697;27;20200;-53
2022/07/03 02:19:06;;;;;;;3.60;3.40;;;;;;;16.96;100.00;96926.59;5132560;27;20624;-52
2022/07/03 02:21:33;;;;;;;3.10;2.90;;;;;;;16.94;100.00;96924.09;5133930;27;20656;-52
2022/07/03 02:24:18;;;;;;;3.40;3.10;;;;;;;16.91;100.00;96924.44;5133986;27;20344;-53
2022/07/03 02:27:00;;;;;;;3.58;3.38;;;;;;;16.92;100.00;96928.78;5133933;27;20196;-52
2022/07/03 02:29:33;;;;;;;3.42;3.20;;;;;;;16.92;100.00;96924.28;5134368;27;20268;-53
2022/07/03 02:32:01;;;;;;;3.78;3.50;;;;;;;16.91;100.00;96930.63;5134375;27;20188;-52
2022/07/03 02:34:31;;;;;;;3.78;3.15;;;;;;;16.92;100.00;96931.47;5133716;27;20213;-53
2022/07/03 02:37:05;;;;;;;3.35;2.92;;;;;;;16.90;100.00;96928.97;5132745;27;20212;-52
2022/07/03 02:39:36;;;;;;;3.50;3.30;;;;;;;16.84;100.00;96935.00;5133546;27;20683;-53
2022/07/03 02:42:05;;;;;;;2.95;2.75;;;;;;;16.79;100.00;96934.69;5133330;27;20236;-53
2022/07/03 02:44:45;;;;;;;3.50;3.28;;;;;;;16.82;100.00;96936.19;5132799;27;20197;-53
2022/07/03 02:47:17;;;;;;;3.60;2.67;;;;;;;16.83;100.00;96936.00;5133639;27;20180;-53
2022/07/03 02:49:51;;;;;;;3.40;3.10;;;;;;;16.78;100.00;96933.03;5133271;27;20201;-51
2022/07/03 02:52:35;;;;;;;3.72;3.17;;;;;;;16.69;100.00;96939.41;5133802;27;20191;-52
2022/07/03 02:55:20;;;;;;;4.28;3.10;;;;;;;16.65;100.00;96935.41;5133487;27;20279;-52
2022/07/03 02:58:08;;;;;;;3.05;2.85;;;;;;;16.67;100.00;96948.63;5133455;27;20287;-53
2022/07/03 03:00:38;;;;;;;3.00;2.75;;;;;;;16.64;100.00;96940.94;5133869;27;20203;-53
2022/07/03 03:03:05;;;;;;;3.35;3.08;;;;;;;16.67;100.00;96940.59;5132286;27;20680;-53
2022/07/03 03:05:37;;;;;;;3.08;2.90;;;;;;;16.64;100.00;96947.13;5133463;27;20596;-52
2022/07/03 03:08:12;;;;;;;3.08;2.88;;;;;;;16.64;100.00;96939.13;5133702;27;20203;-52
2022/07/03 03:10:39;;;;;;;3.10;2.90;;;;;;;16.63;100.00;96942.78;5136997;27;20188;-52
2022/07/03 03:13:09;;;;;;;3.28;3.00;;;;;;;16.67;100.00;96946.78;5140136;27;20256;-53
2022/07/03 03:15:39;;;;;;;6.53;3.00;;;;;;;16.61;100.00;96944.81;5134665;27;20200;-53
2022/07/03 03:18:07;;;;;;;4.40;3.10;;;;;;;16.60;100.00;96952.97;5135282;27;20208;-53
2022/07/03 03:20:35;;;;;;;2.97;2.78;;;;;;;16.67;100.00;96951.28;5133986;27;20208;-51
2022/07/03 03:23:18;;;;;;;2.72;2.63;;;;;;;16.68;100.00;96961.81;5134553;27;20224;-52
2022/07/03 03:25:46;;;;;;;3.13;2.92;;;;;;;16.60;100.00;96958.31;5131403;27;20578;-53
2022/07/03 03:28:13;;;;;;;3.03;2.67;;;;;;;16.54;100.00;96959.81;5133142;27;20244;-52
2022/07/03 03:30:41;;;;;;;3.00;2.80;;;;;;;16.54;100.00;96962.50;5131835;27;20288;-53
2022/07/03 03:33:09;;;;;;;5.13;3.03;;;;;;;16.50;100.00;96963.84;5132207;27;20220;-52
2022/07/03 03:35:37;;;;;;;4.30;2.90;;;;;;;16.50;100.00;96971.84;5132319;27;20200;-52
2022/07/03 03:38:05;;;;;;;2.70;2.60;;;;;;;16.50;100.00;96974.50;5133271;27;20200;-53
2022/07/03 03:40:34;;;;;;;2.95;2.45;;;;;;;16.51;100.00;96975.34;5132175;27;20236;-52
2022/07/03 03:43:01;;;;;;;4.63;2.95;;;;;;;16.48;100.00;96981.84;5133134;27;20238;-54
2022/07/03 03:45:28;;;;;;;2.40;2.30;;;;;;;16.54;100.00;96981.19;5132697;27;20196;-53
2022/07/03 03:47:56;;;;;;;2.83;2.70;;;;;;;16.56;100.00;96981.88;5131658;27;20841;-52
2022/07/03 03:50:27;;;;;;;2.35;2.25;;;;;;;16.55;100.00;96988.16;5138047;27;20212;-53
2022/07/03 03:52:54;;;;;;;2.40;2.30;;;;;;;16.59;100.00;96983.34;5133627;27;20204;-53
2022/07/03 03:55:22;;;;;;;2.55;2.38;;;;;;;16.53;100.00;96981.34;5134102;27;20295;-53
2022/07/03 03:57:51;;;;;;;2.63;2.40;;;;;;;16.49;100.00;96988.03;5133989;27;20632;-53
2022/07/03 04:00:18;;;;;;;2.40;2.30;;;;;;;16.50;100.00;96979.84;5134026;27;20208;-52
2022/07/03 04:02:46;;;;;;;2.72;2.53;;;;;;;16.48;100.00;96987.19;5132058;27;20225;-52
2022/07/03 04:05:14;;;;;;;4.43;2.42;;;;;;;16.44;100.00;96983.19;5132444;27;20228;-53
2022/07/03 04:07:40;;;;;;;2.92;2.72;;;;;;;16.48;100.00;96984.53;5132059;28;20215;-52
2022/07/03 04:10:08;;;;;;;2.33;2.13;;;;;;;16.59;100.00;96988.69;5131950;28;20553;-53
2022/07/03 04:12:35;;;;;;;2.60;2.40;;;;;;;16.60;100.00;96983.19;5132418;28;20211;-51
2022/07/03 04:15:02;;;;;;;2.58;2.20;;;;;;;16.60;100.00;96983.19;5131705;28;20201;-53
2022/07/03 04:17:29;;;;;;;2.58;2.38;;;;;;;16.68;100.00;96987.69;5132385;28;20265;-53
2022/07/03 04:19:56;;;;;;;2.38;2.00;;;;;;;16.90;100.00;96998.41;5132287;28;20295;-51
2022/07/03 04:22:23;;;;;;;2.55;2.42;;;;;;;17.16;100.00;96991.94;5132651;27;20205;-52
2022/07/03 04:24:50;;;;;;;2.60;2.40;;;;;;;17.36;100.00;96990.50;5143696;27;20208;-53
2022/07/03 04:27:17;;;;;;;2.45;2.25;;;;;;;17.86;100.00;96988.16;5145181;28;20204;-53
2022/07/03 04:29:44;;;;;;;5.05;2.45;;;;;;;18.03;100.00;96993.38;5145452;28;20189;-53
2022/07/03 04:32:12;;;;;;;3.17;2.22;;;;;;;18.00;100.00;96986.53;5146378;28;20239;-53
2022/07/03 04:34:38;;;;;;;2.38;1.92;;;;;;;18.09;100.00;96992.66;5141826;28;20222;-53
2022/07/03 04:37:05;;;;;;;2.88;2.38;;;;;;;18.43;100.00;96987.63;5143259;27;20302;-53
2022/07/03 04:39:33;;;;;;;3.28;2.17;;;;;;;18.69;99.16;96990.72;5143970;27;20176;-53
2022/07/03 04:42:02;;;;;;;2.35;1.77;;;;;;;18.84;97.64;96988.03;5145018;27;20244;-53
2022/07/03 04:44:29;;;;;;;2.40;2.22;;;;;;;18.95;95.76;96994.78;5145256;27;20220;-52
2022/07/03 04:47:00;;;;;;;2.50;2.30;;;;;;;18.98;95.27;96986.34;5144633;28;20200;-53
2022/07/03 04:49:27;;;;;;;2.20;2.10;;;;;;;18.97;96.68;97003.44;5142115;28;20272;-53
2022/07/03 04:51:55;;;;;;;2.10;2.00;;;;;;;19.04;97.69;96999.00;5142891;27;20192;-52
2022/07/03 04:54:22;;;;;;;2.65;2.45;;;;;;;19.18;96.07;96995.47;5131399;27;20231;-52
2022/07/03 04:56:50;;;;;;;3.15;2.38;;;;;;;19.21;96.09;96989.72;5132213;28;20220;-54
2022/07/03 04:59:16;;;;;;;3.53;3.20;;;;;;;19.21;96.68;96993.25;5131404;28;20215;-52
2022/07/03 05:01:44;;;;;;;3.95;3.55;;;;;;;19.36;96.42;96991.38;5132265;27;20295;-53
2022/07/03 05:04:11;;;;;;;4.82;4.18;;;;;;;19.39;96.42;96995.50;5131750;28;20659;-53
2022/07/03 05:06:38;;;;;;;4.68;4.22;;;;;;;19.41;95.70;96998.88;5131868;28;20841;-52
2022/07/03 05:09:04;;;;;;;5.22;4.13;;;;;;;19.25;97.86;96993.69;5131517;28;20197;-53
2022/07/03 05:11:33;;;;;;;5.03;4.60;;;;;;;19.28;98.83;97001.34;5132691;27;20201;-53
2022/07/03 05:14:01;;;;;;;4.85;4.55;;;;;;;19.30;98.46;96997.50;5135154;27;20200;-51
2022/07/03 05:16:29;;;;;;;5.13;4.32;;;;;;;19.46;98.24;96996.44;5135660;27;20290;-52
2022/07/03 05:18:56;;;;;;;5.00;4.60;;;;;;;19.65;98.58;97001.19;5135579;27;20192;-52
2022/07/03 05:21:24;;;;;;;5.20;4.80;;;;;;;19.76;95.40;96998.00;5136056;27;20205;-54
2022/07/03 05:23:50;;;;;;;5.35;4.95;;;;;;;19.99;94.58;97002.34;5149200;27;20217;-53
2022/07/03 05:26:18;;;;;;;4.70;4.30;;;;;;;20.16;92.86;97003.72;5146913;27;20268;-53
2022/07/03 05:28:46;;;;;;;5.47;4.90;;;;;;;20.21;95.26;97001.28;5142025;27;20533;-51
2022/07/03 05:31:15;;;;;;;4.88;4.47;;;;;;;20.33;91.77;97007.84;5136787;27;20204;-52
2022/07/03 05:33:44;;;;;;;4.70;4.20;;;;;;;20.72;92.50;96994.69;5135555;27;20591;-52
2022/07/03 05:36:11;;;;;;;4.78;3.85;;;;;;;20.94;89.13;96999.97;5135802;27;20231;-51
2022/07/03 05:41:21;;;;;;;4.35;4.05;;;;;;;21.20;86.82;96998.25;5135130;27;20239;-52
2022/07/03 05:43:48;;;;;;;4.00;3.70;;;;;;;21.39;85.80;96991.28;5134883;27;20212;-52
2022/07/03 05:46:17;;;;;;;4.40;3.85;;;;;;;21.60;87.24;96993.00;5134992;27;20197;-52
2022/07/03 05:48:46;;;;;;;3.63;3.38;;;;;;;21.83;84.08;96983.50;5135507;27;20197;-53
2022/07/03 05:51:14;;;;;;;3.90;3.50;;;;;;;21.99;81.50;96993.09;5134400;27;20200;-53
2022/07/03 05:53:42;;;;;;;3.90;3.60;;;;;;;22.07;82.98;96989.38;5135328;27;20193;-53
2022/07/03 05:56:09;;;;;;;4.65;3.63;;;;;;;22.31;81.78;96999.53;5135395;27;20307;-53
2022/07/03 05:58:36;;;;;;;3.75;3.45;;;;;;;22.61;81.11;97000.75;5134798;27;20223;-53
2022/07/03 06:01:02;;;;;;;3.67;3.35;;;;;;;22.81;79.75;96992.66;5134662;27;20631;-55
2022/07/03 06:03:30;;;;;;;4.35;3.80;;;;;;;22.85;78.39;96993.06;5135346;27;20228;-53
2022/07/03 06:06:00;;;;;;;3.47;3.17;;;;;;;23.02;77.97;96995.09;5133822;27;20284;-53
2022/07/03 06:08:27;;;;;;;3.50;3.30;;;;;;;23.11;78.05;96987.56;5134923;27;20200;-52
2022/07/03 06:10:54;;;;;;;2.90;2.70;;;;;;;23.28;76.09;96994.16;5134574;27;20211;-52
2022/07/03 06:13:21;;;;;;;3.63;3.42;;;;;;;23.17;75.70;96997.50;5134728;27;20192;-52
2022/07/03 06:15:47;;;;;;;3.45;3.25;;;;;;;23.44;76.92;96995.56;5134720;27;20279;-53
2022/07/03 06:18:14;;;;;;;3.22;3.03;;;;;;;23.50;75.49;96983.91;5134114;27;20211;-53
2022/07/03 06:20:42;;;;;;;3.05;2.75;;;;;;;23.83;75.83;96992.66;5134374;27;20197;-51
2022/07/03 06:23:09;;;;;;;4.45;2.65;;;;;;;24.12;74.60;96983.09;5133830;27;20204;-54
2022/07/03 06:25:36;;;;;;;3.20;3.00;;;;;;;24.30;73.54;96980.50;5134531;27;20231;-52
2022/07/03 06:28:04;;;;;;;4.50;2.92;;;;;;;24.31;73.29;96979.44;5134010;27;20193;-52
2022/07/03 06:30:31;;;;;;;3.63;3.13;;;;;;;24.23;73.88;96982.44;5133996;27;20200;-54
2022/07/03 06:33:00;;;;;;;2.65;2.47;;;;;;;24.72;73.65;96979.69;5132768;27;20201;-52
2022/07/03 06:35:26;;;;;;;2.25;2.15;;;;;;;25.01;70.74;96974.63;5134108;27;20196;-54
2022/07/03 06:37:54;;;;;;;2.97;2.17;;;;;;;25.30;71.19;96986.53;5133338;27;20716;-55
2022/07/03 06:40:21;;;;;;;2.40;2.30;;;;;;;25.39;69.99;96977.91;5133049;27;20247;-55
2022/07/03 06:42:49;;;;;;;2.55;2.30;;;;;;;25.49;69.38;96978.19;5133984;27;20307;-55
2022/07/03 06:45:16;;;;;;;2.85;2.22;;;;;;;25.65;67.93;96979.44;5133899;27;20220;-55
2022/07/03 06:47:42;;;;;;;2.38;2.17;;;;;;;25.73;68.00;96971.81;5133033;27;20241;-54
2022/07/03 06:50:09;;;;;;;4.03;2.30;;;;;;;25.75;68.07;96971.59;5133375;27;20201;-56
2022/07/03 06:52:36;;;;;;;2.60;2.38;;;;;;;25.80;67.22;96974.44;5133929;27;20288;-54
2022/07/03 06:55:06;;;;;;;2.60;2.40;;;;;;;25.54;68.75;96970.22;5132218;27;20283;-55
2022/07/03 06:57:33;;;;;;;3.30;2.40;;;;;;;25.83;69.68;96965.00;5133450;27;20204;-54
2022/07/03 07:00:02;;;;;;;2.20;2.10;;;;;;;25.91;64.14;96975.53;5134235;27;20196;-55
2022/07/03 07:02:29;;;;;;;2.33;2.13;;;;;;;26.24;63.52;96965.03;5133567;27;20317;-54
2022/07/03 07:04:55;;;;;;;3.17;2.40;;;;;;;26.25;66.31;96972.13;5133943;27;20250;-54
2022/07/03 07:07:24;;;;;;;2.67;2.47;;;;;;;26.34;64.98;96965.28;5132565;27;20196;-54
2022/07/03 07:09:53;;;;;;;2.10;2.00;;;;;;;26.47;63.30;96961.50;5133736;27;20287;-54
2022/07/03 07:12:22;;;;;;;2.70;2.20;;;;;;;26.64;63.94;96970.59;5133408;27;20215;-53
2022/07/03 07:14:49;;;;;;;2.25;2.03;;;;;;;26.64;60.27;96965.97;5133120;27;20196;-54
2022/07/03 07:17:15;;;;;;;2.90;2.40;;;;;;;26.85;61.49;96959.19;5133355;27;20306;-54
2022/07/03 07:19:42;;;;;;;2.60;2.40;;;;;;;27.03;61.90;96963.66;5132777;27;20218;-54
2022/07/03 07:22:09;;;;;;;3.63;2.47;;;;;;;26.83;60.06;96958.56;5133010;27;20208;-55
2022/07/03 07:24:36;;;;;;;2.10;2.00;;;;;;;26.99;62.65;96951.59;5133086;27;20231;-54
2022/07/03 07:27:04;;;;;;;2.67;2.47;;;;;;;27.04;60.50;96954.41;5132895;27;20196;-55
2022/07/03 07:29:32;;;;;;;2.35;2.25;;;;;;;27.30;60.58;96953.06;5132859;27;20212;-54
2022/07/03 07:31:59;;;;;;;2.15;1.90;;;;;;;27.42;60.79;96946.50;5132749;27;20204;-55
2022/07/03 07:34:27;;;;;;;2.08;1.98;;;;;;;27.48;58.94;96934.72;5135092;27;20201;-54
2022/07/03 07:36:54;;;;;;;2.67;2.25;;;;;;;27.48;58.42;96945.59;5149970;27;20224;-55
2022/07/03 07:39:21;;;;;;;2.72;2.30;;;;;;;27.66;58.03;96942.69;5144889;27;21015;-54
2022/07/03 07:41:48;;;;;;;2.58;2.22;;;;;;;27.87;58.70;96943.03;5138002;27;20315;-56
2022/07/03 07:44:17;;;;;;;2.00;1.90;;;;;;;28.16;56.62;96941.97;5134887;27;20229;-58
2022/07/03 07:46:45;;;;;;;2.45;1.90;;;;;;;28.13;58.72;96939.69;5133493;27;20238;-56
2022/07/03 07:49:11;;;;;;;1.95;1.77;;;;;;;28.41;54.63;96945.06;5132568;27;20597;-53
2022/07/03 07:51:40;;;;;;;1.90;1.80;;;;;;;28.20;55.53;96934.94;5133216;27;20283;-55
2022/07/03 07:54:08;;;;;;;2.03;1.92;;;;;;;28.50;54.47;96938.16;5132887;27;20288;-54
2022/07/03 07:56:35;;;;;;;1.75;1.67;;;;;;;28.45;54.33;96935.34;5132164;27;20208;-55
2022/07/03 07:59:01;;;;;;;2.28;1.80;;;;;;;28.30;53.76;96931.56;5132999;27;20215;-55
2022/07/03 08:06:58;;;;;;;2.25;2.10;;;;;;;28.78;54.54;96928.22;5132560;27;20188;-55
2022/07/03 08:09:26;;;;;;;1.80;1.70;;;;;;;28.97;53.65;96930.41;5131587;27;20237;-54
2022/07/03 08:11:54;;;;;;;2.17;1.90;;;;;;;28.96;53.25;96925.22;5133222;27;20208;-54
2022/07/03 08:14:23;;;;;;;2.47;2.00;;;;;;;29.07;52.88;96924.28;5133668;28;20641;-54
2022/07/03 08:16:50;;;;;;;1.63;1.55;;;;;;;29.38;51.20;96925.47;5135595;28;20200;-53
2022/07/03 08:19:19;;;;;;;1.65;1.55;;;;;;;29.39;51.11;96924.41;5135904;27;20711;-54
2022/07/03 08:21:45;;;;;;;2.05;1.45;;;;;;;29.34;52.65;96919.72;5136861;27;20201;-55
2022/07/03 08:24:12;;;;;;;1.90;1.80;;;;;;;29.22;49.85;96921.75;5144225;28;20223;-55
2022/07/03 08:26:39;;;;;;;1.45;1.45;;;;;;;29.65;48.74;96929.88;5148309;28;20200;-53
2022/07/03 08:29:06;;;;;;;1.70;1.60;;;;;;;29.41;50.57;96922.25;5147987;28;20201;-54
2022/07/03 08:31:32;;;;;;;1.52;1.42;;;;;;;29.34;50.87;96927.91;5154197;27;20192;-53
2022/07/03 08:33:59;;;;;;;1.58;1.50;;;;;;;29.48;49.13;96929.16;5158426;27;20192;-54
2022/07/03 08:36:27;;;;;;;2.42;1.65;;;;;;;29.41;50.04;96924.97;5159559;27;20193;-54
2022/07/03 08:38:53;;;;;;;1.73;1.63;;;;;;;29.23;49.83;96930.75;5159623;27;20176;-53
2022/07/03 08:41:22;;;;;;;1.38;1.27;;;;;;;29.19;49.75;96933.16;5158461;27;20212;-54
2022/07/03 08:43:51;;;;;;;1.77;1.60;;;;;;;29.46;50.19;96925.88;5155738;27;20183;-53
2022/07/03 08:46:19;;;;;;;1.40;1.40;;;;;;;29.71;49.63;96936.22;5156658;27;20226;-53
2022/07/03 08:48:46;;;;;;;1.67;1.58;;;;;;;29.86;46.25;96930.13;5163371;27;20210;-54
2022/07/03 08:51:14;;;;;;;1.90;1.80;;;;;;;29.51;46.79;96928.63;5158420;27;20634;-55
2022/07/03 08:53:44;;;;;;;2.33;1.80;;;;;;;29.37;49.03;96926.59;5151039;27;20199;-53
2022/07/03 08:56:11;;;;;;;1.60;1.50;;;;;;;29.55;50.46;96929.78;5136742;27;20296;-54
2022/07/03 08:58:43;;;;;;;1.50;1.40;;;;;;;29.44;50.54;96924.47;5136902;27;20201;-53
2022/07/03 09:01:09;;;;;;;1.77;1.42;;;;;;;29.54;48.67;96930.88;5136137;27;20220;-54
2022/07/03 09:03:36;;;;;;;1.45;1.35;;;;;;;29.73;46.48;96933.22;5136031;27;20212;-55
2022/07/03 09:06:02;;;;;;;2.22;1.40;;;;;;;29.74;45.51;96930.25;5135730;27;20222;-54
2022/07/03 09:08:31;;;;;;;2.63;1.42;;;;;;;29.81;47.19;96922.69;5135606;27;20299;-55
2022/07/03 09:11:00;;;;;;;1.48;1.38;;;;;;;29.59;46.80;96925.47;5136450;27;20193;-55
2022/07/03 09:13:26;;;;;;;1.40;1.30;;;;;;;29.78;44.72;96925.94;5135995;27;20192;-54
2022/07/03 09:15:53;;;;;;;2.22;1.45;;;;;;;29.72;43.44;96929.69;5136007;27;20204;-55
2022/07/03 09:18:37;;;;;;;1.10;1.00;;;;;;;30.10;37.62;96915.91;5136336;27;20230;-55
2022/07/03 09:21:04;;;;;;;1.15;1.10;;;;;;;30.17;40.93;96921.13;5136238;27;20307;-52
2022/07/03 09:23:36;;;;;;;1.27;1.17;;;;;;;30.16;41.03;96918.66;5135301;27;20752;-53
2022/07/03 09:26:05;;;;;;;1.17;0.80;;;;;;;30.08;38.19;96917.22;5135809;27;20210;-53
2022/07/03 09:28:47;;;;;;;0.90;0.90;;;;;;;30.14;39.68;96913.47;5136320;27;20728;-54
2022/07/03 09:31:15;;;;;;;1.70;1.10;;;;;;;30.21;41.62;96910.53;5145370;27;20656;-55
2022/07/03 09:33:52;;;;;;;1.10;1.10;;;;;;;30.40;40.35;96903.56;5143042;27;20208;-53
2022/07/03 09:36:20;;;;;;;1.55;1.15;;;;;;;30.43;40.61;96903.88;5141747;27;20229;-51
2022/07/03 09:38:46;;;;;;;1.10;1.10;;;;;;;30.45;41.14;96915.38;5137539;27;20291;-53
2022/07/03 09:41:14;;;;;;;1.40;1.30;;;;;;;30.39;42.16;96908.22;5137506;27;20221;-53
2022/07/03 09:43:43;;;;;;;1.30;1.20;;;;;;;30.28;40.72;96908.41;5140539;27;20283;-54
2022/07/03 09:46:10;;;;;;;1.10;1.00;;;;;;;30.19;42.70;96899.03;5149638;27;20244;-54
2022/07/03 09:48:38;;;;;;;1.10;1.10;;;;;;;30.29;44.31;96902.66;5149895;27;20188;-53
2022/07/03 09:51:13;;;;;;;6.00;1.20;;;;;;;30.52;42.79;96902.31;5152952;27;20201;-53
2022/07/03 09:53:58;;;;;;;1.00;1.00;;;;;;;30.46;40.98;96900.66;5143741;27;20204;-53
2022/07/03 09:56:30;;;;;;;1.20;1.10;;;;;;;30.68;39.68;96899.69;5134981;27;20193;-54
2022/07/03 09:59:09;;;;;;;0.90;0.90;;;;;;;30.93;40.53;96894.34;5133412;27;20196;-53
2022/07/03 10:01:36;;;;;;;1.92;1.33;;;;;;;31.15;40.09;96889.56;5135540;27;20200;-54
2022/07/03 10:04:12;;;;;;;0.98;0.98;;;;;;;30.98;40.94;96894.41;5137722;27;20193;-53
2022/07/03 10:06:52;;;;;;;1.48;1.10;;;;;;;31.09;38.60;96894.19;5143660;27;20231;-54
2022/07/03 10:09:20;;;;;;;1.00;1.00;;;;;;;31.23;39.50;96886.31;5148488;27;20224;-53
2022/07/03 10:11:49;;;;;;;1.67;0.82;;;;;;;31.24;40.54;96893.44;5146530;27;20240;-55
2022/07/03 10:14:17;;;;;;;1.50;1.40;;;;;;;31.10;39.31;96886.84;5145179;27;20272;-54
2022/07/03 10:16:45;;;;;;;1.02;0.93;;;;;;;31.21;39.77;96895.88;5145343;27;20204;-53
2022/07/03 10:19:15;;;;;;;1.27;1.27;;;;;;;31.23;39.18;96894.53;5145712;27;20205;-52
2022/07/03 10:21:43;;;;;;;1.10;1.10;;;;;;;31.37;38.33;96887.47;5145312;27;20197;-54
2022/07/03 10:24:11;;;;;;;0.90;0.90;;;;;;;31.46;39.07;96883.09;5147242;27;20188;-54
2022/07/03 10:26:40;;;;;;;1.52;1.10;;;;;;;31.38;36.73;96872.72;5145563;27;20193;-53
2022/07/03 10:29:11;;;;;;;1.05;1.00;;;;;;;31.48;36.77;96874.66;5145392;27;20228;-54
2022/07/03 10:31:38;;;;;;;1.85;0.95;;;;;;;31.62;35.70;96877.72;5146452;27;20265;-53
2022/07/03 10:34:06;;;;;;;1.02;1.00;;;;;;;31.73;35.38;96879.38;5148129;27;20227;-51
2022/07/03 10:36:34;;;;;;;1.70;0.98;;;;;;;31.74;35.95;96873.66;5142463;27;20193;-54
2022/07/03 10:39:03;;;;;;;6.13;1.30;;;;;;;31.60;35.84;96875.25;5134975;27;20281;-53
2022/07/03 10:47:06;;;;;;;2.28;1.20;;;;;;;31.47;37.50;96876.56;5133307;27;20211;-55
2022/07/03 10:49:32;;;;;;;1.48;1.10;;;;;;;31.60;35.96;96866.22;5133446;27;20208;-54
2022/07/03 10:52:01;;;;;;;1.08;0.90;;;;;;;31.60;36.58;96868.97;5133229;27;20748;-54
2022/07/03 10:54:29;;;;;;;0.80;0.80;;;;;;;31.57;38.29;96862.94;5132879;27;20192;-54
2022/07/03 10:57:19;;;;;;;0.90;0.90;;;;;;;31.64;38.32;96861.88;5133311;27;20249;-54
2022/07/03 11:00:18;;;;;;;0.95;0.95;;;;;;;31.67;34.96;96869.53;5133108;27;20196;-54
2022/07/03 11:02:47;;;;;;;0.90;0.90;;;;;;;31.60;35.73;96858.84;5133985;27;20288;-51
2022/07/03 11:05:27;;;;;;;0.98;0.98;;;;;;;31.50;35.05;96858.78;5133420;27;20299;-52
2022/07/03 11:08:16;;;;;;;0.98;0.98;;;;;;;31.55;33.68;96851.47;5133236;27;20249;-52
2022/07/03 11:10:44;;;;;;;1.08;0.90;;;;;;;31.53;36.22;96847.38;5133049;27;20201;-51
2022/07/03 11:13:15;;;;;;;0.80;0.80;;;;;;;31.71;36.77;96846.81;5133293;27;20228;-52
2022/07/03 11:15:47;;;;;;;1.45;1.15;;;;;;;31.75;37.32;96839.72;5134370;27;20262;-53
2022/07/03 11:18:19;;;;;;;1.13;1.02;;;;;;;31.91;38.32;96832.34;5134424;27;20211;-52
2022/07/03 11:21:21;;;;;;;1.33;1.30;;;;;;;31.87;35.48;96836.72;5133578;27;20208;-52
2022/07/03 11:24:21;;;;;;;2.25;2.05;;;;;;;32.22;36.17;96828.50;5132329;27;20624;-52
2022/07/03 11:27:29;;;;;;;0.95;0.95;;;;;;;32.43;36.52;96823.81;5133352;27;20287;-52
2022/07/03 11:30:00;;;;;;;1.42;1.33;;;;;;;32.65;37.07;96821.59;5133210;27;20200;-52
2022/07/03 11:32:50;;;;;;;1.85;1.15;;;;;;;32.59;32.22;96822.72;5133200;27;20184;-51
2022/07/03 11:35:53;;;;;;;2.10;1.00;;;;;;;32.54;31.74;96815.31;5132459;27;20616;-52
2022/07/03 11:38:25;;;;;;;1.48;1.30;;;;;;;32.47;36.67;96814.78;5132859;27;20520;-53
2022/07/03 11:40:53;;;;;;;1.40;1.30;;;;;;;32.49;37.14;96807.09;5132909;27;20235;-53
2022/07/03 11:43:20;;;;;;;1.48;1.00;;;;;;;32.62;35.84;96811.22;5131605;27;20208;-52
2022/07/03 11:45:48;;;;;;;1.20;1.15;;;;;;;32.65;38.02;96810.66;5132787;27;20223;-52
2022/07/03 11:48:17;;;;;;;1.10;1.10;;;;;;;32.54;33.71;96804.34;5132442;27;20347;-53
2022/07/03 11:50:48;;;;;;;1.50;1.40;;;;;;;32.64;36.51;96803.53;5131477;27;20279;-52
2022/07/03 11:53:19;;;;;;;2.53;1.10;;;;;;;32.77;35.02;96796.66;5131536;27;20288;-51
2022/07/03 11:55:51;;;;;;;1.10;1.10;;;;;;;32.56;33.47;96796.66;5132530;27;20189;-54